sensor_id;sensor_type;location;lat;lon;timestamp;P1;durP1;ratioP1;P2;durP2;ratioP2
48363;SDS011;34170;54.364;18.582;2023-05-27T00:01:18;16.50;;;6.32;;
48363;SDS011;34170;54.364;18.582;2023-05-27T00:03:45;18.42;;;5.90;;
48363;SDS011;34170;54.364;18.582;2023-05-27T00:06:14;22.13;;;6.28;;
48363;SDS011;34170;54.364;18.582;2023-05-27T00:08:41;20.92;;;6.90;;
48363;SDS011;34170;54.364;18.582;2023-05-27T00:11:08;21.63;;;6.45;;
48363;SDS011;34170;54.364;18.582;2023-05-27T00:13:36;22.70;;;5.93;;
48363;SDS011;34170;54.364;18.582;2023-05-27T00:16:03;20.77;;;5.60;;
48363;SDS011;34170;54.364;18.582;2023-05-27T00:18:31;26.00;;;5.75;;
48363;SDS011;34170;54.364;18.582;2023-05-27T00:21:00;18.00;;;5.38;;
48363;SDS011;34170;54.364;18.582;2023-05-27T00:23:27;21.50;;;5.55;;
48363;SDS011;34170;54.364;18.582;2023-05-27T00:25:54;20.63;;;5.93;;
48363;SDS011;34170;54.364;18.582;2023-05-27T00:28:22;16.70;;;5.85;;
48363;SDS011;34170;54.364;18.582;2023-05-27T00:30:49;20.67;;;6.45;;
48363;SDS011;34170;54.364;18.582;2023-05-27T00:33:17;16.67;;;5.43;;
48363;SDS011;34170;54.364;18.582;2023-05-27T00:35:44;14.63;;;4.65;;
48363;SDS011;34170;54.364;18.582;2023-05-27T00:38:12;18.23;;;5.25;;
48363;SDS011;34170;54.364;18.582;2023-05-27T00:40:39;14.48;;;5.22;;
48363;SDS011;34170;54.364;18.582;2023-05-27T00:43:08;17.27;;;5.38;;
48363;SDS011;34170;54.364;18.582;2023-05-27T00:45:35;19.48;;;5.18;;
48363;SDS011;34170;54.364;18.582;2023-05-27T00:48:03;18.35;;;5.25;;
48363;SDS011;34170;54.364;18.582;2023-05-27T00:50:31;17.88;;;6.20;;
48363;SDS011;34170;54.364;18.582;2023-05-27T00:52:59;17.83;;;5.88;;
48363;SDS011;34170;54.364;18.582;2023-05-27T00:55:27;18.42;;;5.63;;
48363;SDS011;34170;54.364;18.582;2023-05-27T00:57:55;15.85;;;5.93;;
48363;SDS011;34170;54.364;18.582;2023-05-27T01:00:23;20.88;;;5.72;;
48363;SDS011;34170;54.364;18.582;2023-05-27T01:02:51;20.35;;;5.90;;
48363;SDS011;34170;54.364;18.582;2023-05-27T01:05:19;16.17;;;5.80;;
48363;SDS011;34170;54.364;18.582;2023-05-27T01:10:36;14.88;;;5.50;;
48363;SDS011;34170;54.364;18.582;2023-05-27T01:13:29;23.35;;;6.10;;
48363;SDS011;34170;54.364;18.582;2023-05-27T01:16:02;13.40;;;4.75;;
48363;SDS011;34170;54.364;18.582;2023-05-27T01:18:37;19.40;;;5.30;;
48363;SDS011;34170;54.364;18.582;2023-05-27T01:21:16;20.48;;;6.13;;
48363;SDS011;34170;54.364;18.582;2023-05-27T01:23:49;25.52;;;5.88;;
48363;SDS011;34170;54.364;18.582;2023-05-27T01:26:17;22.98;;;6.57;;
48363;SDS011;34170;54.364;18.582;2023-05-27T01:28:46;21.45;;;6.07;;
48363;SDS011;34170;54.364;18.582;2023-05-27T01:31:15;15.63;;;5.43;;
48363;SDS011;34170;54.364;18.582;2023-05-27T01:33:55;25.63;;;6.43;;
48363;SDS011;34170;54.364;18.582;2023-05-27T01:36:38;15.20;;;5.10;;
48363;SDS011;34170;54.364;18.582;2023-05-27T01:39:16;17.25;;;4.22;;
48363;SDS011;34170;54.364;18.582;2023-05-27T01:41:43;23.05;;;6.28;;
48363;SDS011;34170;54.364;18.582;2023-05-27T01:44:14;18.85;;;5.18;;
48363;SDS011;34170;54.364;18.582;2023-05-27T01:46:44;17.83;;;6.20;;
48363;SDS011;34170;54.364;18.582;2023-05-27T01:49:13;23.77;;;5.38;;
48363;SDS011;34170;54.364;18.582;2023-05-27T01:51:40;21.17;;;5.30;;
48363;SDS011;34170;54.364;18.582;2023-05-27T01:54:08;23.67;;;5.93;;
48363;SDS011;34170;54.364;18.582;2023-05-27T01:56:36;17.30;;;5.60;;
48363;SDS011;34170;54.364;18.582;2023-05-27T01:59:04;20.33;;;5.20;;
48363;SDS011;34170;54.364;18.582;2023-05-27T02:01:32;17.52;;;5.00;;
48363;SDS011;34170;54.364;18.582;2023-05-27T02:04:01;14.45;;;5.47;;
48363;SDS011;34170;54.364;18.582;2023-05-27T02:06:30;16.27;;;5.72;;
48363;SDS011;34170;54.364;18.582;2023-05-27T02:08:59;13.75;;;4.85;;
48363;SDS011;34170;54.364;18.582;2023-05-27T02:11:27;20.02;;;6.43;;
48363;SDS011;34170;54.364;18.582;2023-05-27T02:13:54;18.50;;;5.10;;
48363;SDS011;34170;54.364;18.582;2023-05-27T02:16:23;17.48;;;5.28;;
48363;SDS011;34170;54.364;18.582;2023-05-27T02:18:51;20.23;;;4.90;;
48363;SDS011;34170;54.364;18.582;2023-05-27T02:21:18;14.75;;;5.03;;
48363;SDS011;34170;54.364;18.582;2023-05-27T02:23:46;19.83;;;6.75;;
48363;SDS011;34170;54.364;18.582;2023-05-27T02:26:13;16.98;;;4.95;;
48363;SDS011;34170;54.364;18.582;2023-05-27T02:28:40;15.40;;;5.30;;
48363;SDS011;34170;54.364;18.582;2023-05-27T02:31:08;15.52;;;5.32;;
48363;SDS011;34170;54.364;18.582;2023-05-27T02:33:37;13.13;;;4.57;;
48363;SDS011;34170;54.364;18.582;2023-05-27T02:36:04;20.23;;;5.53;;
48363;SDS011;34170;54.364;18.582;2023-05-27T02:38:34;14.85;;;5.22;;
48363;SDS011;34170;54.364;18.582;2023-05-27T02:41:02;12.52;;;4.45;;
48363;SDS011;34170;54.364;18.582;2023-05-27T02:43:30;17.00;;;5.50;;
48363;SDS011;34170;54.364;18.582;2023-05-27T02:45:57;12.88;;;4.60;;
48363;SDS011;34170;54.364;18.582;2023-05-27T02:48:25;19.17;;;5.28;;
48363;SDS011;34170;54.364;18.582;2023-05-27T02:50:53;17.73;;;4.97;;
48363;SDS011;34170;54.364;18.582;2023-05-27T02:53:20;13.77;;;4.60;;
48363;SDS011;34170;54.364;18.582;2023-05-27T02:55:49;15.57;;;4.68;;
48363;SDS011;34170;54.364;18.582;2023-05-27T02:58:17;12.50;;;4.25;;
48363;SDS011;34170;54.364;18.582;2023-05-27T03:00:45;14.65;;;5.32;;
48363;SDS011;34170;54.364;18.582;2023-05-27T03:03:14;15.52;;;4.38;;
48363;SDS011;34170;54.364;18.582;2023-05-27T03:05:42;17.48;;;5.50;;
48363;SDS011;34170;54.364;18.582;2023-05-27T03:08:09;14.75;;;5.00;;
48363;SDS011;34170;54.364;18.582;2023-05-27T03:10:37;16.02;;;4.78;;
48363;SDS011;34170;54.364;18.582;2023-05-27T03:13:04;12.50;;;3.75;;
48363;SDS011;34170;54.364;18.582;2023-05-27T03:15:31;18.80;;;4.72;;
48363;SDS011;34170;54.364;18.582;2023-05-27T03:17:59;13.23;;;4.30;;
48363;SDS011;34170;54.364;18.582;2023-05-27T03:20:27;13.40;;;4.45;;
48363;SDS011;34170;54.364;18.582;2023-05-27T03:22:55;19.88;;;5.15;;
48363;SDS011;34170;54.364;18.582;2023-05-27T03:25:23;16.25;;;4.50;;
48363;SDS011;34170;54.364;18.582;2023-05-27T03:27:51;10.45;;;3.75;;
48363;SDS011;34170;54.364;18.582;2023-05-27T03:30:20;19.95;;;4.22;;
48363;SDS011;34170;54.364;18.582;2023-05-27T03:32:51;15.27;;;4.20;;
48363;SDS011;34170;54.364;18.582;2023-05-27T03:35:24;14.68;;;4.25;;
48363;SDS011;34170;54.364;18.582;2023-05-27T03:37:52;12.05;;;3.67;;
48363;SDS011;34170;54.364;18.582;2023-05-27T03:40:20;11.75;;;3.30;;
48363;SDS011;34170;54.364;18.582;2023-05-27T03:42:47;14.45;;;4.60;;
48363;SDS011;34170;54.364;18.582;2023-05-27T03:45:19;15.15;;;4.22;;
48363;SDS011;34170;54.364;18.582;2023-05-27T03:47:46;13.52;;;3.30;;
48363;SDS011;34170;54.364;18.582;2023-05-27T03:50:15;13.13;;;4.38;;
48363;SDS011;34170;54.364;18.582;2023-05-27T03:52:42;11.43;;;4.05;;
48363;SDS011;34170;54.364;18.582;2023-05-27T03:55:10;9.63;;;3.95;;
48363;SDS011;34170;54.364;18.582;2023-05-27T03:57:37;12.20;;;3.72;;
48363;SDS011;34170;54.364;18.582;2023-05-27T04:00:06;8.57;;;3.10;;
48363;SDS011;34170;54.364;18.582;2023-05-27T04:05:16;12.80;;;3.78;;
48363;SDS011;34170;54.364;18.582;2023-05-27T04:07:44;12.93;;;3.33;;
48363;SDS011;34170;54.364;18.582;2023-05-27T04:10:11;10.00;;;3.50;;
48363;SDS011;34170;54.364;18.582;2023-05-27T04:12:39;12.07;;;3.42;;
48363;SDS011;34170;54.364;18.582;2023-05-27T04:15:08;10.45;;;3.70;;
48363;SDS011;34170;54.364;18.582;2023-05-27T04:17:36;12.45;;;3.40;;
48363;SDS011;34170;54.364;18.582;2023-05-27T04:20:04;11.73;;;3.70;;
48363;SDS011;34170;54.364;18.582;2023-05-27T04:22:45;11.02;;;3.22;;
48363;SDS011;34170;54.364;18.582;2023-05-27T04:25:12;12.77;;;3.47;;
48363;SDS011;34170;54.364;18.582;2023-05-27T04:28:01;13.45;;;3.97;;
48363;SDS011;34170;54.364;18.582;2023-05-27T04:30:34;9.93;;;3.58;;
48363;SDS011;34170;54.364;18.582;2023-05-27T04:33:07;15.68;;;3.70;;
48363;SDS011;34170;54.364;18.582;2023-05-27T04:35:36;9.15;;;3.50;;
48363;SDS011;34170;54.364;18.582;2023-05-27T04:38:04;11.52;;;3.53;;
48363;SDS011;34170;54.364;18.582;2023-05-27T04:40:42;11.30;;;3.63;;
48363;SDS011;34170;54.364;18.582;2023-05-27T04:43:32;9.75;;;3.33;;
48363;SDS011;34170;54.364;18.582;2023-05-27T04:46:00;14.60;;;4.10;;
48363;SDS011;34170;54.364;18.582;2023-05-27T04:48:28;16.83;;;4.28;;
48363;SDS011;34170;54.364;18.582;2023-05-27T04:50:55;9.23;;;2.88;;
48363;SDS011;34170;54.364;18.582;2023-05-27T04:53:24;10.70;;;3.65;;
48363;SDS011;34170;54.364;18.582;2023-05-27T04:55:51;13.98;;;2.85;;
48363;SDS011;34170;54.364;18.582;2023-05-27T04:58:20;10.98;;;3.08;;
48363;SDS011;34170;54.364;18.582;2023-05-27T05:00:49;16.50;;;3.35;;
48363;SDS011;34170;54.364;18.582;2023-05-27T05:03:19;14.30;;;3.17;;
48363;SDS011;34170;54.364;18.582;2023-05-27T05:05:50;10.98;;;3.55;;
48363;SDS011;34170;54.364;18.582;2023-05-27T05:08:22;10.82;;;2.78;;
48363;SDS011;34170;54.364;18.582;2023-05-27T05:10:52;8.98;;;2.88;;
48363;SDS011;34170;54.364;18.582;2023-05-27T05:13:20;10.80;;;2.55;;
48363;SDS011;34170;54.364;18.582;2023-05-27T05:15:48;9.65;;;2.60;;
48363;SDS011;34170;54.364;18.582;2023-05-27T05:18:17;14.05;;;3.42;;
48363;SDS011;34170;54.364;18.582;2023-05-27T05:20:44;11.27;;;2.90;;
48363;SDS011;34170;54.364;18.582;2023-05-27T05:23:14;12.00;;;3.30;;
48363;SDS011;34170;54.364;18.582;2023-05-27T05:25:43;10.52;;;2.65;;
48363;SDS011;34170;54.364;18.582;2023-05-27T05:28:10;8.70;;;2.88;;
48363;SDS011;34170;54.364;18.582;2023-05-27T05:30:39;11.30;;;3.42;;
48363;SDS011;34170;54.364;18.582;2023-05-27T05:33:07;8.95;;;2.40;;
48363;SDS011;34170;54.364;18.582;2023-05-27T05:35:34;11.35;;;3.00;;
48363;SDS011;34170;54.364;18.582;2023-05-27T05:38:18;10.27;;;2.85;;
48363;SDS011;34170;54.364;18.582;2023-05-27T05:40:48;11.63;;;2.83;;
48363;SDS011;34170;54.364;18.582;2023-05-27T05:43:20;9.52;;;2.80;;
48363;SDS011;34170;54.364;18.582;2023-05-27T05:45:48;9.73;;;3.75;;
48363;SDS011;34170;54.364;18.582;2023-05-27T05:48:18;8.97;;;2.83;;
48363;SDS011;34170;54.364;18.582;2023-05-27T05:50:46;9.70;;;3.00;;
48363;SDS011;34170;54.364;18.582;2023-05-27T05:53:14;8.35;;;2.80;;
48363;SDS011;34170;54.364;18.582;2023-05-27T05:55:43;7.60;;;2.40;;
48363;SDS011;34170;54.364;18.582;2023-05-27T05:58:10;5.30;;;2.33;;
48363;SDS011;34170;54.364;18.582;2023-05-27T06:00:38;9.40;;;2.33;;
48363;SDS011;34170;54.364;18.582;2023-05-27T06:03:28;9.63;;;2.78;;
48363;SDS011;34170;54.364;18.582;2023-05-27T06:05:58;10.95;;;3.72;;
48363;SDS011;34170;54.364;18.582;2023-05-27T06:08:27;7.78;;;3.13;;
48363;SDS011;34170;54.364;18.582;2023-05-27T06:11:07;13.35;;;3.25;;
48363;SDS011;34170;54.364;18.582;2023-05-27T06:13:35;9.68;;;2.88;;
48363;SDS011;34170;54.364;18.582;2023-05-27T06:16:05;10.70;;;2.47;;
48363;SDS011;34170;54.364;18.582;2023-05-27T06:18:33;10.20;;;2.70;;
48363;SDS011;34170;54.364;18.582;2023-05-27T06:21:01;5.25;;;2.00;;
48363;SDS011;34170;54.364;18.582;2023-05-27T06:23:34;6.93;;;2.40;;
48363;SDS011;34170;54.364;18.582;2023-05-27T06:26:15;6.25;;;2.47;;
48363;SDS011;34170;54.364;18.582;2023-05-27T06:28:48;7.43;;;1.90;;
48363;SDS011;34170;54.364;18.582;2023-05-27T06:31:16;6.32;;;2.22;;
48363;SDS011;34170;54.364;18.582;2023-05-27T06:33:43;6.22;;;1.98;;
48363;SDS011;34170;54.364;18.582;2023-05-27T06:36:11;4.30;;;2.17;;
48363;SDS011;34170;54.364;18.582;2023-05-27T06:38:40;7.68;;;1.98;;
48363;SDS011;34170;54.364;18.582;2023-05-27T06:41:08;4.05;;;1.92;;
48363;SDS011;34170;54.364;18.582;2023-05-27T06:43:39;5.63;;;2.33;;
48363;SDS011;34170;54.364;18.582;2023-05-27T06:46:17;3.67;;;1.10;;
48363;SDS011;34170;54.364;18.582;2023-05-27T06:48:55;3.80;;;1.10;;
48363;SDS011;34170;54.364;18.582;2023-05-27T06:51:22;3.60;;;1.00;;
48363;SDS011;34170;54.364;18.582;2023-05-27T06:53:51;4.55;;;1.33;;
48363;SDS011;34170;54.364;18.582;2023-05-27T06:56:24;2.90;;;0.63;;
48363;SDS011;34170;54.364;18.582;2023-05-27T06:59:21;2.17;;;0.80;;
48363;SDS011;34170;54.364;18.582;2023-05-27T07:01:48;3.00;;;0.95;;
48363;SDS011;34170;54.364;18.582;2023-05-27T07:04:16;2.58;;;1.02;;
48363;SDS011;34170;54.364;18.582;2023-05-27T07:06:53;3.20;;;1.08;;
48363;SDS011;34170;54.364;18.582;2023-05-27T07:09:21;2.95;;;1.23;;
48363;SDS011;34170;54.364;18.582;2023-05-27T07:11:48;3.08;;;0.77;;
48363;SDS011;34170;54.364;18.582;2023-05-27T07:14:36;3.08;;;1.00;;
48363;SDS011;34170;54.364;18.582;2023-05-27T07:17:05;2.85;;;1.00;;
48363;SDS011;34170;54.364;18.582;2023-05-27T07:19:32;5.43;;;0.65;;
48363;SDS011;34170;54.364;18.582;2023-05-27T07:22:04;2.17;;;1.10;;
48363;SDS011;34170;54.364;18.582;2023-05-27T07:24:32;2.90;;;1.00;;
48363;SDS011;34170;54.364;18.582;2023-05-27T07:26:59;4.95;;;1.73;;
48363;SDS011;34170;54.364;18.582;2023-05-27T07:29:30;1.85;;;1.08;;
48363;SDS011;34170;54.364;18.582;2023-05-27T07:32:18;4.90;;;1.70;;
48363;SDS011;34170;54.364;18.582;2023-05-27T07:34:47;5.40;;;1.23;;
48363;SDS011;34170;54.364;18.582;2023-05-27T07:37:14;4.10;;;1.42;;
48363;SDS011;34170;54.364;18.582;2023-05-27T07:39:42;2.97;;;0.90;;
48363;SDS011;34170;54.364;18.582;2023-05-27T07:42:12;2.90;;;1.15;;
48363;SDS011;34170;54.364;18.582;2023-05-27T07:44:40;4.30;;;1.55;;
48363;SDS011;34170;54.364;18.582;2023-05-27T07:47:07;3.58;;;1.00;;
48363;SDS011;34170;54.364;18.582;2023-05-27T07:49:35;3.25;;;1.15;;
48363;SDS011;34170;54.364;18.582;2023-05-27T07:52:20;6.68;;;1.23;;
48363;SDS011;34170;54.364;18.582;2023-05-27T07:54:48;7.40;;;1.60;;
48363;SDS011;34170;54.364;18.582;2023-05-27T07:57:23;4.60;;;1.70;;
48363;SDS011;34170;54.364;18.582;2023-05-27T07:59:51;7.65;;;2.03;;
48363;SDS011;34170;54.364;18.582;2023-05-27T08:02:18;4.55;;;1.83;;
48363;SDS011;34170;54.364;18.582;2023-05-27T08:07:24;4.05;;;1.17;;
48363;SDS011;34170;54.364;18.582;2023-05-27T08:10:07;5.72;;;1.48;;
48363;SDS011;34170;54.364;18.582;2023-05-27T08:12:58;4.63;;;1.15;;
48363;SDS011;34170;54.364;18.582;2023-05-27T08:15:40;5.30;;;1.23;;
48363;SDS011;34170;54.364;18.582;2023-05-27T08:18:25;3.42;;;1.20;;
48363;SDS011;34170;54.364;18.582;2023-05-27T08:21:13;7.50;;;0.75;;
48363;SDS011;34170;54.364;18.582;2023-05-27T08:24:02;2.00;;;0.80;;
48363;SDS011;34170;54.364;18.582;2023-05-27T08:26:59;4.68;;;0.95;;
48363;SDS011;34170;54.364;18.582;2023-05-27T08:32:22;2.92;;;1.05;;
48363;SDS011;34170;54.364;18.582;2023-05-27T08:34:49;6.13;;;1.08;;
48363;SDS011;34170;54.364;18.582;2023-05-27T08:37:17;6.00;;;0.95;;
48363;SDS011;34170;54.364;18.582;2023-05-27T08:39:47;3.30;;;0.85;;
48363;SDS011;34170;54.364;18.582;2023-05-27T08:42:39;2.63;;;0.43;;
48363;SDS011;34170;54.364;18.582;2023-05-27T08:45:09;1.90;;;0.63;;
48363;SDS011;34170;54.364;18.582;2023-05-27T08:47:40;4.43;;;0.70;;
48363;SDS011;34170;54.364;18.582;2023-05-27T08:50:13;2.42;;;0.60;;
48363;SDS011;34170;54.364;18.582;2023-05-27T08:52:48;4.43;;;0.70;;
48363;SDS011;34170;54.364;18.582;2023-05-27T08:55:20;1.73;;;0.63;;
48363;SDS011;34170;54.364;18.582;2023-05-27T08:57:51;2.28;;;0.47;;
48363;SDS011;34170;54.364;18.582;2023-05-27T09:00:23;6.18;;;1.02;;
48363;SDS011;34170;54.364;18.582;2023-05-27T09:05:31;1.40;;;0.60;;
48363;SDS011;34170;54.364;18.582;2023-05-27T09:07:59;1.38;;;0.60;;
48363;SDS011;34170;54.364;18.582;2023-05-27T09:10:39;2.35;;;0.70;;
48363;SDS011;34170;54.364;18.582;2023-05-27T09:13:08;3.20;;;0.52;;
48363;SDS011;34170;54.364;18.582;2023-05-27T09:15:36;4.47;;;0.80;;
48363;SDS011;34170;54.364;18.582;2023-05-27T09:18:05;7.18;;;0.75;;
48363;SDS011;34170;54.364;18.582;2023-05-27T09:20:32;3.97;;;0.82;;
48363;SDS011;34170;54.364;18.582;2023-05-27T09:23:01;2.35;;;0.45;;
48363;SDS011;34170;54.364;18.582;2023-05-27T09:25:29;2.45;;;0.50;;
48363;SDS011;34170;54.364;18.582;2023-05-27T09:27:57;2.25;;;0.57;;
48363;SDS011;34170;54.364;18.582;2023-05-27T09:30:25;1.80;;;0.50;;
48363;SDS011;34170;54.364;18.582;2023-05-27T09:33:01;2.38;;;0.32;;
48363;SDS011;34170;54.364;18.582;2023-05-27T09:35:36;3.25;;;0.75;;
48363;SDS011;34170;54.364;18.582;2023-05-27T09:38:08;3.35;;;0.63;;
48363;SDS011;34170;54.364;18.582;2023-05-27T09:40:36;0.93;;;0.50;;
48363;SDS011;34170;54.364;18.582;2023-05-27T09:43:05;2.22;;;0.45;;
48363;SDS011;34170;54.364;18.582;2023-05-27T09:45:33;4.43;;;0.60;;
48363;SDS011;34170;54.364;18.582;2023-05-27T09:48:01;1.73;;;0.45;;
48363;SDS011;34170;54.364;18.582;2023-05-27T09:50:29;6.53;;;0.70;;
48363;SDS011;34170;54.364;18.582;2023-05-27T09:52:59;1.25;;;0.47;;
48363;SDS011;34170;54.364;18.582;2023-05-27T09:55:38;2.05;;;0.60;;
48363;SDS011;34170;54.364;18.582;2023-05-27T10:00:37;1.30;;;0.50;;
48363;SDS011;34170;54.364;18.582;2023-05-27T10:03:08;1.80;;;0.30;;
48363;SDS011;34170;54.364;18.582;2023-05-27T10:05:37;1.83;;;0.40;;
48363;SDS011;34170;54.364;18.582;2023-05-27T10:08:06;4.38;;;0.50;;
48363;SDS011;34170;54.364;18.582;2023-05-27T10:10:53;4.13;;;0.80;;
48363;SDS011;34170;54.364;18.582;2023-05-27T10:13:23;2.28;;;0.47;;
48363;SDS011;34170;54.364;18.582;2023-05-27T10:15:52;3.57;;;0.80;;
48363;SDS011;34170;54.364;18.582;2023-05-27T10:18:24;2.72;;;0.47;;
48363;SDS011;34170;54.364;18.582;2023-05-27T10:20:55;2.80;;;0.65;;
48363;SDS011;34170;54.364;18.582;2023-05-27T10:23:25;3.33;;;1.00;;
48363;SDS011;34170;54.364;18.582;2023-05-27T10:26:00;1.65;;;0.30;;
48363;SDS011;34170;54.364;18.582;2023-05-27T10:28:35;0.93;;;0.38;;
48363;SDS011;34170;54.364;18.582;2023-05-27T10:31:07;3.67;;;0.43;;
48363;SDS011;34170;54.364;18.582;2023-05-27T10:33:36;3.67;;;0.50;;
48363;SDS011;34170;54.364;18.582;2023-05-27T10:38:40;1.52;;;0.40;;
48363;SDS011;34170;54.364;18.582;2023-05-27T10:41:09;1.73;;;0.45;;
48363;SDS011;34170;54.364;18.582;2023-05-27T10:43:37;1.25;;;0.28;;
48363;SDS011;34170;54.364;18.582;2023-05-27T10:46:08;3.80;;;0.65;;
48363;SDS011;34170;54.364;18.582;2023-05-27T10:48:39;3.53;;;0.50;;
48363;SDS011;34170;54.364;18.582;2023-05-27T10:51:07;8.95;;;0.50;;
48363;SDS011;34170;54.364;18.582;2023-05-27T10:53:36;0.60;;;0.30;;
48363;SDS011;34170;54.364;18.582;2023-05-27T10:56:04;1.55;;;0.40;;
48363;SDS011;34170;54.364;18.582;2023-05-27T10:58:36;1.10;;;0.40;;
48363;SDS011;34170;54.364;18.582;2023-05-27T11:01:10;3.70;;;0.40;;
48363;SDS011;34170;54.364;18.582;2023-05-27T11:03:44;1.25;;;0.22;;
48363;SDS011;34170;54.364;18.582;2023-05-27T11:06:13;1.80;;;0.20;;
48363;SDS011;34170;54.364;18.582;2023-05-27T11:08:42;2.67;;;0.40;;
48363;SDS011;34170;54.364;18.582;2023-05-27T11:11:11;2.90;;;0.60;;
48363;SDS011;34170;54.364;18.582;2023-05-27T11:13:40;1.70;;;0.57;;
48363;SDS011;34170;54.364;18.582;2023-05-27T11:16:14;2.88;;;0.70;;
48363;SDS011;34170;54.364;18.582;2023-05-27T11:18:47;4.70;;;0.43;;
48363;SDS011;34170;54.364;18.582;2023-05-27T11:21:15;2.30;;;0.50;;
48363;SDS011;34170;54.364;18.582;2023-05-27T11:26:13;1.83;;;0.40;;
48363;SDS011;34170;54.364;18.582;2023-05-27T11:28:49;3.53;;;0.30;;
48363;SDS011;34170;54.364;18.582;2023-05-27T11:31:27;2.03;;;0.40;;
48363;SDS011;34170;54.364;18.582;2023-05-27T11:33:56;3.60;;;0.40;;
48363;SDS011;34170;54.364;18.582;2023-05-27T11:36:28;2.28;;;0.40;;
48363;SDS011;34170;54.364;18.582;2023-05-27T11:38:59;6.85;;;0.40;;
48363;SDS011;34170;54.364;18.582;2023-05-27T11:41:29;2.55;;;0.52;;
48363;SDS011;34170;54.364;18.582;2023-05-27T11:43:59;3.10;;;0.63;;
48363;SDS011;34170;54.364;18.582;2023-05-27T11:46:36;4.20;;;0.60;;
48363;SDS011;34170;54.364;18.582;2023-05-27T11:49:05;2.55;;;0.50;;
48363;SDS011;34170;54.364;18.582;2023-05-27T11:51:36;3.00;;;0.47;;
48363;SDS011;34170;54.364;18.582;2023-05-27T11:54:05;1.67;;;0.22;;
48363;SDS011;34170;54.364;18.582;2023-05-27T11:56:33;0.60;;;0.20;;
48363;SDS011;34170;54.364;18.582;2023-05-27T11:59:01;2.47;;;0.30;;
48363;SDS011;34170;54.364;18.582;2023-05-27T12:01:28;4.40;;;0.40;;
48363;SDS011;34170;54.364;18.582;2023-05-27T12:03:56;2.05;;;0.32;;
48363;SDS011;34170;54.364;18.582;2023-05-27T12:06:24;3.05;;;0.40;;
48363;SDS011;34170;54.364;18.582;2023-05-27T12:08:52;1.55;;;0.43;;
48363;SDS011;34170;54.364;18.582;2023-05-27T12:11:19;3.83;;;0.77;;
48363;SDS011;34170;54.364;18.582;2023-05-27T12:13:47;1.65;;;0.40;;
48363;SDS011;34170;54.364;18.582;2023-05-27T12:16:14;3.95;;;0.60;;
48363;SDS011;34170;54.364;18.582;2023-05-27T12:18:42;1.95;;;0.50;;
48363;SDS011;34170;54.364;18.582;2023-05-27T12:21:10;3.15;;;0.22;;
48363;SDS011;34170;54.364;18.582;2023-05-27T12:23:37;2.60;;;0.40;;
48363;SDS011;34170;54.364;18.582;2023-05-27T12:26:05;2.13;;;0.55;;
48363;SDS011;34170;54.364;18.582;2023-05-27T12:28:32;2.40;;;0.77;;
48363;SDS011;34170;54.364;18.582;2023-05-27T12:31:00;2.22;;;0.32;;
48363;SDS011;34170;54.364;18.582;2023-05-27T12:33:28;1.15;;;0.30;;
48363;SDS011;34170;54.364;18.582;2023-05-27T12:35:55;3.80;;;0.45;;
48363;SDS011;34170;54.364;18.582;2023-05-27T12:38:23;5.25;;;0.30;;
48363;SDS011;34170;54.364;18.582;2023-05-27T12:40:51;1.42;;;0.20;;
48363;SDS011;34170;54.364;18.582;2023-05-27T12:43:19;5.82;;;0.75;;
48363;SDS011;34170;54.364;18.582;2023-05-27T12:45:46;2.60;;;0.22;;
48363;SDS011;34170;54.364;18.582;2023-05-27T12:48:15;2.35;;;0.40;;
48363;SDS011;34170;54.364;18.582;2023-05-27T12:50:42;1.08;;;0.40;;
48363;SDS011;34170;54.364;18.582;2023-05-27T12:53:10;3.03;;;0.43;;
48363;SDS011;34170;54.364;18.582;2023-05-27T12:55:37;1.23;;;0.20;;
48363;SDS011;34170;54.364;18.582;2023-05-27T12:58:05;1.20;;;0.30;;
48363;SDS011;34170;54.364;18.582;2023-05-27T13:00:33;0.90;;;0.32;;
48363;SDS011;34170;54.364;18.582;2023-05-27T13:03:01;0.95;;;0.20;;
48363;SDS011;34170;54.364;18.582;2023-05-27T13:05:29;1.30;;;0.20;;
48363;SDS011;34170;54.364;18.582;2023-05-27T13:07:58;1.20;;;0.40;;
48363;SDS011;34170;54.364;18.582;2023-05-27T13:10:27;2.70;;;0.10;;
48363;SDS011;34170;54.364;18.582;2023-05-27T13:12:56;0.90;;;0.20;;
48363;SDS011;34170;54.364;18.582;2023-05-27T13:15:26;1.00;;;0.30;;
48363;SDS011;34170;54.364;18.582;2023-05-27T13:17:54;2.90;;;0.35;;
48363;SDS011;34170;54.364;18.582;2023-05-27T13:20:22;0.90;;;0.20;;
48363;SDS011;34170;54.364;18.582;2023-05-27T13:22:51;1.77;;;0.30;;
48363;SDS011;34170;54.364;18.582;2023-05-27T13:25:20;5.13;;;0.20;;
48363;SDS011;34170;54.364;18.582;2023-05-27T13:27:48;1.65;;;0.30;;
48363;SDS011;34170;54.364;18.582;2023-05-27T13:30:15;1.10;;;0.30;;
48363;SDS011;34170;54.364;18.582;2023-05-27T13:32:43;3.88;;;0.75;;
48363;SDS011;34170;54.364;18.582;2023-05-27T13:35:10;2.83;;;0.30;;
48363;SDS011;34170;54.364;18.582;2023-05-27T13:37:39;2.88;;;0.32;;
48363;SDS011;34170;54.364;18.582;2023-05-27T13:40:07;3.60;;;0.45;;
48363;SDS011;34170;54.364;18.582;2023-05-27T13:42:35;2.90;;;0.30;;
48363;SDS011;34170;54.364;18.582;2023-05-27T13:45:04;1.83;;;0.32;;
48363;SDS011;34170;54.364;18.582;2023-05-27T13:47:32;1.55;;;0.30;;
48363;SDS011;34170;54.364;18.582;2023-05-27T13:50:00;2.70;;;0.30;;
48363;SDS011;34170;54.364;18.582;2023-05-27T13:52:28;1.33;;;0.40;;
48363;SDS011;34170;54.364;18.582;2023-05-27T13:54:55;3.05;;;0.30;;
48363;SDS011;34170;54.364;18.582;2023-05-27T13:57:22;2.78;;;0.38;;
48363;SDS011;34170;54.364;18.582;2023-05-27T13:59:50;6.72;;;0.30;;
48363;SDS011;34170;54.364;18.582;2023-05-27T14:02:17;3.60;;;0.20;;
48363;SDS011;34170;54.364;18.582;2023-05-27T14:04:45;2.55;;;0.38;;
48363;SDS011;34170;54.364;18.582;2023-05-27T14:07:13;0.60;;;0.20;;
48363;SDS011;34170;54.364;18.582;2023-05-27T14:09:40;4.38;;;0.38;;
48363;SDS011;34170;54.364;18.582;2023-05-27T14:12:08;1.40;;;0.30;;
48363;SDS011;34170;54.364;18.582;2023-05-27T14:14:35;0.85;;;0.20;;
48363;SDS011;34170;54.364;18.582;2023-05-27T14:17:03;1.05;;;0.30;;
48363;SDS011;34170;54.364;18.582;2023-05-27T14:19:31;1.85;;;0.32;;
48363;SDS011;34170;54.364;18.582;2023-05-27T14:21:58;2.75;;;0.40;;
48363;SDS011;34170;54.364;18.582;2023-05-27T14:24:26;0.60;;;0.20;;
48363;SDS011;34170;54.364;18.582;2023-05-27T14:26:55;1.40;;;0.22;;
48363;SDS011;34170;54.364;18.582;2023-05-27T14:29:24;2.67;;;0.20;;
48363;SDS011;34170;54.364;18.582;2023-05-27T14:31:52;1.58;;;0.35;;
48363;SDS011;34170;54.364;18.582;2023-05-27T14:34:20;0.85;;;0.30;;
48363;SDS011;34170;54.364;18.582;2023-05-27T14:36:48;2.58;;;0.30;;
48363;SDS011;34170;54.364;18.582;2023-05-27T14:39:15;2.00;;;0.50;;
48363;SDS011;34170;54.364;18.582;2023-05-27T14:41:43;0.95;;;0.20;;
48363;SDS011;34170;54.364;18.582;2023-05-27T14:44:10;1.98;;;0.20;;
48363;SDS011;34170;54.364;18.582;2023-05-27T14:46:38;2.60;;;0.40;;
48363;SDS011;34170;54.364;18.582;2023-05-27T14:49:05;1.40;;;0.32;;
48363;SDS011;34170;54.364;18.582;2023-05-27T14:51:33;2.05;;;0.30;;
48363;SDS011;34170;54.364;18.582;2023-05-27T14:54:00;1.02;;;0.22;;
48363;SDS011;34170;54.364;18.582;2023-05-27T14:56:28;1.05;;;0.30;;
48363;SDS011;34170;54.364;18.582;2023-05-27T14:58:55;2.28;;;0.20;;
48363;SDS011;34170;54.364;18.582;2023-05-27T15:01:23;2.15;;;0.20;;
48363;SDS011;34170;54.364;18.582;2023-05-27T15:03:50;4.18;;;0.60;;
48363;SDS011;34170;54.364;18.582;2023-05-27T15:06:18;1.42;;;0.20;;
48363;SDS011;34170;54.364;18.582;2023-05-27T15:08:46;1.98;;;0.28;;